Kingman, AZ

4:24 AM MST on October 21, 2014 (GMT -0700)
Southeast Kingman | Change Station
CLOSE
Current Station
Personal Weather Station
Location: Kingman, AZ
Elevation: 3584 ft
Nearby Weather Stations

Elev 3584 ft 35.20 °N, 114.00 °W | Updated 2 minutes ago

Clear
Clear
58.8 °F
Feels Like 58.8 °F
N
0.0
Wind Variable Wind from SSE
Gusts 0.0 mph

Today
High -- | Low -- °F
--% Chance of Precip.
Yesterday
High -- | Low -- °F
Precip. -- in
6:47 AM 5:53 PM
Waning Crescent, 6% visible
Pressure 29.96 in
Visibility 10.0 miles
Clouds Clear
Dew Point 45 °F
Humidity 60%
Rainfall 0.00 in
Snow Depth Not available.
UV 0 out of 12
Pollen 4.70 out of 12
Air Quality Not available.
Flu Activity No Activity
METAR KIGM 211051Z AUTO 13003KT 10SM CLR 15/06 A2996 RMK AO2 SLPNO T01500056 $

More Conditions Fewer Conditions

Pressure 29.96 in
Visibility 10.0 miles
Clouds Clear
Dew Point 45 °F
Humidity 60%
Rainfall 0.00 in
Snow Depth Not available.
UV 0 out of 12
Pollen 4.70 out of 12
Air Quality Not available.
Flu Activity No Activity
METAR KIGM 211051Z AUTO 13003KT 10SM CLR 15/06 A2996 RMK AO2 SLPNO T01500056 $

More Conditions Fewer Conditions

10-Day Weather Forecast

Almanac

Astronomy

Oct. 21, 2014 Rise Set
Actual Time 6:47 AM MST 5:53 PM MST
Civil Twilight 6:21 AM MST 6:19 PM MST
Nautical Twilight 5:52 AM MST 6:48 PM MST
Astronomical Twilight 5:22 AM MST 7:18 PM MST
Moon 4:40 AM MST 4:46 PM MST
Length of Visible Light 11h 57m
Length of Day
11h 06m
Tomorrow will be 2m 4s shorter.
Waning Crescent, 6% of the Moon is Illuminated
Today
Waning Crescent
Oct 23
New
Oct 30
First Quarter
Nov 6
Full
Nov 14
Last Quarter

Today's Extremes

State Highs State Lows

Community

WunderPhotos

Upload Photos

1,763,627 photos uploaded!

Nearby

Snow Depth

Station Depth Elevation
White Horse Lake 1 in 7180 ft
Snowslide Canyon 0 in 9730 ft
Mormon Mountain 0 in 7500 ft
Happy Jack 0 in 7630 ft
Baker Butte 1 in 7300 ft

Earthquake Activity

City Distance Mag. Time & Date
No recent earthquake activity has been reported nearby.
Minimum magnitude displayed is 2.5.

Coastal Water Temperatures

Place Temperature
No Stations Reporting

Nearby Weather Stations